createdAt,value
2018-10-16T00:01:59.421Z,100490.83
2018-10-16T00:04:28.244Z,100489.67
2018-10-16T00:06:57.041Z,100501.69
2018-10-16T00:09:25.834Z,100503.61
2018-10-16T00:12:03.869Z,100504.13
2018-10-16T00:14:32.909Z,100499.70
2018-10-16T00:17:02.678Z,100499.83
2018-10-16T00:19:31.864Z,100504.59
2018-10-16T00:22:00.653Z,100506.76
2018-10-16T00:24:29.478Z,100507.79
2018-10-16T00:26:58.268Z,100503.63
2018-10-16T00:29:27.100Z,100500.86
2018-10-16T00:31:55.915Z,100500.86
2018-10-16T00:34:24.680Z,100498.74
2018-10-16T00:36:53.488Z,100504.55
2018-10-16T00:39:22.293Z,100499.30
2018-10-16T00:41:53.089Z,100495.95
2018-10-16T00:44:22.009Z,100508.75
2018-10-16T00:46:50.787Z,100509.62
2018-10-16T00:49:19.568Z,100504.50
2018-10-16T00:51:48.344Z,100507.33
2018-10-16T00:54:17.149Z,100507.75
2018-10-16T00:56:45.929Z,100513.23
2018-10-16T00:59:14.753Z,100510.72
2018-10-16T01:01:43.533Z,100516.70
2018-10-16T01:04:12.329Z,100507.36
2018-10-16T01:06:41.109Z,100504.75
2018-10-16T01:09:12.040Z,100517.00
2018-10-16T01:11:41.058Z,100510.97
2018-10-16T01:14:09.876Z,100514.68
2018-10-16T01:16:38.693Z,100521.55
2018-10-16T01:19:07.513Z,100519.73
2018-10-16T01:21:36.313Z,100523.67
2018-10-16T01:24:05.381Z,100518.94
2018-10-16T01:26:34.185Z,100522.18
2018-10-16T01:29:02.976Z,100525.04
2018-10-16T01:31:31.865Z,100526.42
2018-10-16T01:34:00.650Z,100533.55
2018-10-16T01:36:29.457Z,100532.16
2018-10-16T01:38:58.261Z,100542.09
2018-10-16T01:41:27.048Z,100536.41
2018-10-16T01:43:55.826Z,100540.36
2018-10-16T01:46:24.625Z,100540.95
2018-10-16T01:48:53.423Z,100537.37
2018-10-16T01:51:22.194Z,100535.33
2018-10-16T01:53:50.989Z,100533.07
2018-10-16T01:56:19.772Z,100529.23
2018-10-16T01:58:48.597Z,100526.27
2018-10-16T02:01:17.384Z,100527.65
2018-10-16T02:03:46.179Z,100531.03
2018-10-16T02:06:14.966Z,100537.96
2018-10-16T02:08:43.790Z,100530.84
2018-10-16T02:11:12.652Z,100537.92
2018-10-16T02:13:41.492Z,100540.88
2018-10-16T02:16:10.363Z,100544.88
2018-10-16T02:18:39.172Z,100538.61
2018-10-16T02:21:08.070Z,100540.88
2018-10-16T02:23:37.239Z,100545.37
2018-10-16T02:26:06.507Z,100544.63
2018-10-16T02:28:38.309Z,100546.02
2018-10-16T02:31:07.128Z,100549.36
2018-10-16T02:33:35.951Z,100551.55
2018-10-16T02:36:04.797Z,100551.78
2018-10-16T02:38:33.622Z,100545.13
2018-10-16T02:41:02.430Z,100549.99
2018-10-16T02:43:31.285Z,100552.90
2018-10-16T02:46:00.090Z,100556.19
2018-10-16T02:48:28.910Z,100561.06
2018-10-16T02:50:57.708Z,100562.13
2018-10-16T02:53:26.501Z,100560.42
2018-10-16T02:55:55.282Z,100559.91
2018-10-16T02:58:24.138Z,100558.30
2018-10-16T03:00:52.924Z,100557.55
2018-10-16T03:03:21.719Z,100559.52
2018-10-16T03:05:50.548Z,100561.28
2018-10-16T03:08:19.557Z,100563.84
2018-10-16T03:10:48.378Z,100563.25
2018-10-16T03:13:17.212Z,100566.19
2018-10-16T03:15:46.005Z,100565.97
2018-10-16T03:18:14.892Z,100565.55
2018-10-16T03:20:43.757Z,100565.55
2018-10-16T03:23:12.561Z,100570.28
2018-10-16T03:25:41.361Z,100572.47
2018-10-16T03:28:10.163Z,100572.25
2018-10-16T03:30:38.960Z,100571.31
2018-10-16T03:33:07.773Z,100572.47
2018-10-16T03:35:36.557Z,100572.47
2018-10-16T03:38:05.545Z,100572.64
2018-10-16T03:40:34.325Z,100568.64
2018-10-16T03:43:03.117Z,100577.23
2018-10-16T03:45:31.905Z,100580.17
2018-10-16T03:48:00.720Z,100585.55
2018-10-16T03:50:29.506Z,100587.59
2018-10-16T03:52:58.312Z,100591.23
2018-10-16T03:55:27.104Z,100587.34
2018-10-16T03:57:55.912Z,100589.75
2018-10-16T04:00:24.706Z,100591.95
2018-10-16T04:02:53.493Z,100591.79
2018-10-16T04:05:22.429Z,100597.33
2018-10-16T04:07:51.244Z,100598.08
2018-10-16T04:10:20.030Z,100596.46
2018-10-16T04:12:49.854Z,100597.66
2018-10-16T04:15:18.697Z,100598.23
2018-10-16T04:17:47.547Z,100601.20
2018-10-16T04:20:16.302Z,100598.16
2018-10-16T04:22:45.163Z,100600.06
2018-10-16T04:25:13.889Z,100593.52
2018-10-16T04:27:42.674Z,100595.64
2018-10-16T04:30:11.433Z,100597.92
2018-10-16T04:32:40.213Z,100591.86
2018-10-16T04:35:11.597Z,100598.20
2018-10-16T04:37:40.382Z,100593.08
2018-10-16T04:40:08.869Z,100597.70
2018-10-16T04:42:37.661Z,100593.38
2018-10-16T04:45:07.175Z,100592.45
2018-10-16T04:47:35.974Z,100596.64
2018-10-16T04:50:04.825Z,100595.06
2018-10-16T04:52:33.582Z,100593.45
2018-10-16T04:55:02.443Z,100611.24
2018-10-16T04:57:31.202Z,100614.62
2018-10-16T05:00:00.002Z,100611.62
2018-10-16T05:02:28.794Z,100612.78
2018-10-16T05:04:57.593Z,100602.92
2018-10-16T05:07:26.412Z,100611.89
2018-10-16T05:09:55.301Z,100611.77
2018-10-16T05:12:24.090Z,100613.15
2018-10-16T05:14:52.877Z,100619.27
2018-10-16T05:17:21.661Z,100623.63
2018-10-16T05:19:50.453Z,100628.08
2018-10-16T05:22:19.234Z,100627.69
2018-10-16T05:24:48.036Z,100629.05
2018-10-16T05:27:16.884Z,100629.17
2018-10-16T05:29:45.660Z,100633.29
2018-10-16T05:32:14.464Z,100627.13
2018-10-16T05:34:43.344Z,100635.67
2018-10-16T05:37:12.118Z,100636.09
2018-10-16T05:39:40.950Z,100642.67
2018-10-16T05:42:09.768Z,100643.91
2018-10-16T05:44:38.550Z,100641.36
2018-10-16T05:47:07.342Z,100635.81
2018-10-16T05:49:36.118Z,100641.56
2018-10-16T05:52:04.908Z,100633.23
2018-10-16T05:54:33.669Z,100639.23
2018-10-16T05:57:02.422Z,100648.05
2018-10-16T05:59:31.292Z,100648.31
2018-10-16T06:02:00.065Z,100653.19
2018-10-16T06:04:28.841Z,100650.25
2018-10-16T06:06:57.599Z,100649.73
2018-10-16T06:09:26.354Z,100642.64
2018-10-16T06:11:55.103Z,100643.64
2018-10-16T06:14:23.868Z,100646.70
2018-10-16T06:16:52.613Z,100650.94
2018-10-16T06:19:21.381Z,100658.52
2018-10-16T06:21:50.146Z,100665.88
2018-10-16T06:24:19.049Z,100674.45
2018-10-16T06:26:47.720Z,100676.61
2018-10-16T06:29:16.501Z,100679.61
2018-10-16T06:31:45.279Z,100681.84
2018-10-16T06:34:14.032Z,100683.27
2018-10-16T06:36:42.802Z,100687.16
2018-10-16T06:39:11.850Z,100692.39
2018-10-16T06:41:40.740Z,100688.66
2018-10-16T06:44:09.517Z,100689.08
2018-10-16T06:46:38.386Z,100694.74
2018-10-16T06:49:07.119Z,100697.66
2018-10-16T06:51:35.890Z,100702.92
2018-10-16T06:54:04.632Z,100699.09
2018-10-16T06:56:33.466Z,100705.31
2018-10-16T06:59:02.201Z,100703.98
2018-10-16T07:01:30.977Z,100709.05
2018-10-16T07:03:59.717Z,100710.86
2018-10-16T07:06:28.591Z,100709.07
2018-10-16T07:08:57.297Z,100712.25
2018-10-16T07:11:26.066Z,100716.15
2018-10-16T07:13:54.885Z,100715.33
2018-10-16T07:16:23.696Z,100717.09
2018-10-16T07:18:52.449Z,100721.08
2018-10-16T07:21:21.279Z,100724.94
2018-10-16T07:23:50.022Z,100726.20
2018-10-16T07:26:18.765Z,100717.36
2018-10-16T07:28:47.521Z,100725.98
2018-10-16T07:31:16.321Z,100724.89
2018-10-16T07:33:45.089Z,100721.58
2018-10-16T07:36:13.922Z,100723.64
2018-10-16T07:38:42.651Z,100725.88
2018-10-16T07:41:11.430Z,100726.77
2018-10-16T07:43:40.221Z,100731.17
2018-10-16T07:46:09.013Z,100737.36
2018-10-16T07:48:37.906Z,100734.20
2018-10-16T07:51:06.609Z,100738.20
2018-10-16T07:53:35.473Z,100739.45
2018-10-16T07:56:04.254Z,100730.91
2018-10-16T07:58:33.021Z,100734.10
2018-10-16T08:01:01.815Z,100742.86
2018-10-16T08:03:30.628Z,100742.67
2018-10-16T08:05:59.371Z,100745.13
2018-10-16T08:08:28.137Z,100744.80
2018-10-16T08:10:56.901Z,100745.23
2018-10-16T08:13:25.742Z,100746.88
2018-10-16T08:15:54.537Z,100748.92
2018-10-16T08:18:23.321Z,100749.39
2018-10-16T08:20:52.084Z,100746.23
2018-10-16T08:23:20.938Z,100744.48
2018-10-16T08:25:49.681Z,100739.77
2018-10-16T08:28:18.454Z,100748.42
2018-10-16T08:30:47.229Z,100747.26
2018-10-16T08:33:16.092Z,100747.30
2018-10-16T08:35:44.875Z,100748.14
2018-10-16T08:38:21.228Z,100745.52
2018-10-16T08:40:49.989Z,100749.53
2018-10-16T08:43:36.686Z,100744.96
2018-10-16T08:48:21.549Z,100749.80
2018-10-16T08:51:01.577Z,100748.72
2018-10-16T08:53:30.397Z,100745.74
2018-10-16T08:56:02.465Z,100749.56
2018-10-16T08:58:31.245Z,100750.56
2018-10-16T09:01:00.010Z,100756.18
2018-10-16T09:03:28.809Z,100748.97
2018-10-16T09:05:57.626Z,100750.21
2018-10-16T09:08:26.390Z,100761.38
2018-10-16T09:10:55.193Z,100763.30
2018-10-16T09:13:23.972Z,100757.06
2018-10-16T09:15:52.750Z,100759.80
2018-10-16T09:18:21.571Z,100768.32
2018-10-16T09:20:50.333Z,100758.22
2018-10-16T09:23:19.153Z,100760.47
2018-10-16T09:25:47.950Z,100754.45
2018-10-16T09:28:16.813Z,100760.80
2018-10-16T09:30:45.702Z,100765.58
2018-10-16T09:33:14.386Z,100765.95
2018-10-16T09:35:43.201Z,100763.94
2018-10-16T09:38:12.087Z,100765.04
2018-10-16T09:40:40.742Z,100764.77
2018-10-16T09:43:09.509Z,100771.27
2018-10-16T09:45:38.341Z,100762.66
2018-10-16T09:48:07.109Z,100770.08
2018-10-16T09:50:35.929Z,100766.44
2018-10-16T09:53:04.885Z,100769.59
2018-10-16T09:55:33.658Z,100768.59
2018-10-16T09:58:02.397Z,100768.33
2018-10-16T10:00:36.696Z,100769.31
2018-10-16T10:03:05.709Z,100768.16
2018-10-16T10:05:39.936Z,100769.73
2018-10-16T10:08:14.244Z,100766.22
2018-10-16T10:10:48.547Z,100769.84
2018-10-16T10:13:22.757Z,100774.28
2018-10-16T10:15:57.236Z,100773.42
2018-10-16T10:18:31.612Z,100771.56
2018-10-16T10:21:06.116Z,100775.09
2018-10-16T10:23:40.553Z,100770.77
2018-10-16T10:26:14.997Z,100771.64
2018-10-16T10:28:49.397Z,100774.52
2018-10-16T10:31:23.770Z,100773.81
2018-10-16T10:33:58.626Z,100769.73
2018-10-16T10:36:33.173Z,100768.26
2018-10-16T10:39:10.134Z,100766.42
2018-10-16T10:41:38.945Z,100767.42
2018-10-16T10:44:08.312Z,100765.89
2018-10-16T10:46:37.215Z,100772.87
2018-10-16T10:49:06.043Z,100771.34
2018-10-16T10:51:35.170Z,100774.22
2018-10-16T10:54:03.632Z,100769.87
2018-10-16T10:56:32.586Z,100770.70
2018-10-16T10:59:01.641Z,100774.25
2018-10-16T11:01:30.470Z,100773.58
2018-10-16T11:03:59.272Z,100774.47
2018-10-16T11:06:28.045Z,100776.84
2018-10-16T11:08:57.011Z,100767.98
2018-10-16T11:11:25.850Z,100769.28
2018-10-16T11:13:54.666Z,100775.85
2018-10-16T11:16:23.510Z,100773.45
2018-10-16T11:18:52.272Z,100774.81
2018-10-16T11:21:21.043Z,100767.92
2018-10-16T11:23:49.900Z,100766.27
2018-10-16T11:26:18.761Z,100766.37
2018-10-16T11:28:47.804Z,100768.22
2018-10-16T11:31:16.669Z,100768.45
2018-10-16T11:33:45.569Z,100768.36
2018-10-16T11:36:14.421Z,100768.23
2018-10-16T11:38:43.225Z,100772.22
2018-10-16T11:41:12.021Z,100767.19
2018-10-16T11:43:40.790Z,100769.53
2018-10-16T11:46:09.586Z,100768.48
2018-10-16T11:48:38.356Z,100762.00
2018-10-16T11:51:07.145Z,100761.81
2018-10-16T11:53:35.945Z,100764.70
2018-10-16T11:56:04.758Z,100760.64
2018-10-16T11:58:33.461Z,100753.91
2018-10-16T12:01:02.380Z,100751.19
2018-10-16T12:03:31.151Z,100756.98
2018-10-16T12:06:00.157Z,100752.64
2018-10-16T12:08:28.887Z,100757.89
2018-10-16T12:10:57.754Z,100756.78
2018-10-16T12:13:26.528Z,100755.41
2018-10-16T12:15:55.290Z,100755.34
2018-10-16T12:18:33.177Z,100749.52
2018-10-16T12:21:07.791Z,100755.53
2018-10-16T12:23:36.595Z,100759.59
2018-10-16T12:26:05.610Z,100761.96
2018-10-16T12:28:34.398Z,100757.33
2018-10-16T12:31:03.248Z,100764.20
2018-10-16T12:33:32.034Z,100755.66
2018-10-16T12:36:00.836Z,100760.01
2018-10-16T12:38:29.733Z,100764.12
2018-10-16T12:40:59.025Z,100756.35
2018-10-16T12:43:28.233Z,100758.22
2018-10-16T12:45:57.438Z,100765.97
2018-10-16T12:48:26.257Z,100761.52
2018-10-16T12:50:55.062Z,100759.50
2018-10-16T12:53:23.955Z,100766.58
2018-10-16T12:55:52.754Z,100763.66
2018-10-16T12:58:21.670Z,100768.97
2018-10-16T13:00:50.589Z,100768.61
2018-10-16T13:03:19.369Z,100765.49
2018-10-16T13:05:48.229Z,100767.45
2018-10-16T13:08:17.027Z,100772.02
2018-10-16T13:10:45.904Z,100768.34
2018-10-16T13:13:14.703Z,100769.06
2018-10-16T13:15:43.496Z,100769.44
2018-10-16T13:18:12.425Z,100769.55
2018-10-16T13:20:41.285Z,100769.67
2018-10-16T13:23:10.242Z,100764.59
2018-10-16T13:25:38.980Z,100764.72
2018-10-16T13:28:07.866Z,100770.09
2018-10-16T13:30:36.601Z,100758.83
2018-10-16T13:33:05.472Z,100755.06
2018-10-16T13:35:34.245Z,100749.66
2018-10-16T13:38:03.050Z,100754.90
2018-10-16T13:40:31.797Z,100752.41
2018-10-16T13:43:00.600Z,100752.97
2018-10-16T13:45:29.353Z,100753.67
2018-10-16T13:47:58.144Z,100752.07
2018-10-16T13:50:26.913Z,100745.47
2018-10-16T13:52:55.676Z,100751.24
2018-10-16T13:55:24.490Z,100755.28
2018-10-16T13:57:53.290Z,100758.70
2018-10-16T14:00:22.026Z,100760.85
2018-10-16T14:02:51.984Z,100760.38
2018-10-16T14:05:20.785Z,100760.52
2018-10-16T14:07:49.573Z,100765.68
2018-10-16T14:10:18.661Z,100770.14
2018-10-16T14:12:48.144Z,100764.93
2018-10-16T14:15:17.475Z,100764.91
2018-10-16T14:17:46.258Z,100766.20
2018-10-16T14:20:15.058Z,100764.89
2018-10-16T14:22:44.138Z,100763.97
2018-10-16T14:25:14.251Z,100767.38
2018-10-16T14:27:43.241Z,100765.41
2018-10-16T14:30:14.197Z,100770.23
2018-10-16T14:32:43.385Z,100774.45
2018-10-16T14:35:12.693Z,100769.51
2018-10-16T14:37:41.677Z,100766.27
2018-10-16T14:40:12.543Z,100763.41
2018-10-16T14:42:41.504Z,100770.23
2018-10-16T14:45:11.229Z,100767.14
2018-10-16T14:47:39.995Z,100766.97
2018-10-16T14:50:09.600Z,100773.44
2018-10-16T14:52:38.271Z,100768.86
2018-10-16T14:55:07.033Z,100770.77
2018-10-16T14:57:35.904Z,100768.83
2018-10-16T15:00:06.290Z,100772.95
2018-10-16T15:02:35.070Z,100769.84
2018-10-16T15:05:04.270Z,100767.89
2018-10-16T15:07:33.035Z,100770.94
2018-10-16T15:10:01.918Z,100773.75
2018-10-16T15:12:30.965Z,100775.33
2018-10-16T15:15:00.283Z,100777.12
2018-10-16T15:17:29.658Z,100776.68
2018-10-16T15:19:58.698Z,100774.47
2018-10-16T15:22:27.768Z,100781.14
2018-10-16T15:24:56.549Z,100776.68
2018-10-16T15:27:25.417Z,100772.70
2018-10-16T15:29:54.325Z,100774.11
2018-10-16T15:32:23.156Z,100772.52
2018-10-16T15:34:52.001Z,100774.11
2018-10-16T15:37:21.115Z,100774.91
2018-10-16T15:39:49.958Z,100770.09
2018-10-16T15:42:18.846Z,100764.83
2018-10-16T15:44:47.629Z,100768.48
2018-10-16T15:47:16.436Z,100767.74
2018-10-16T15:49:45.257Z,100768.44
2018-10-16T15:52:14.176Z,100770.89
2018-10-16T15:54:42.849Z,100774.72
2018-10-16T15:57:11.666Z,100765.22
2018-10-16T15:59:40.437Z,100768.72
2018-10-16T16:02:09.287Z,100771.81
2018-10-16T16:04:38.045Z,100772.30
2018-10-16T16:07:06.809Z,100780.22
2018-10-16T16:09:35.597Z,100776.33
2018-10-16T16:12:04.548Z,100776.89
2018-10-16T16:14:33.253Z,100773.97
2018-10-16T16:17:02.136Z,100775.29
2018-10-16T16:19:30.898Z,100779.02
2018-10-16T16:21:59.680Z,100779.09
2018-10-16T16:24:28.505Z,100775.62
2018-10-16T16:26:57.278Z,100779.53
2018-10-16T16:29:26.038Z,100780.45
2018-10-16T16:31:54.931Z,100780.29
2018-10-16T16:34:23.648Z,100787.56
2018-10-16T16:36:52.494Z,100792.00
2018-10-16T16:39:21.175Z,100787.85
2018-10-16T16:41:50.053Z,100758.28
2018-10-16T16:44:18.806Z,100790.97
2018-10-16T16:46:47.583Z,100794.83
2018-10-16T16:49:16.365Z,100798.51
2018-10-16T16:51:45.112Z,100802.73
2018-10-16T16:54:13.886Z,100802.44
2018-10-16T16:56:42.633Z,100808.86
2018-10-16T16:59:11.541Z,100803.28
2018-10-16T17:01:40.177Z,100812.55
2018-10-16T17:04:08.988Z,100813.97
2018-10-16T17:06:37.690Z,100815.66
2018-10-16T17:09:09.661Z,100812.47
2018-10-16T17:11:38.491Z,100808.50
2018-10-16T17:14:07.602Z,100814.34
2018-10-16T17:16:36.438Z,100812.95
2018-10-16T17:19:05.825Z,100813.38
2018-10-16T17:21:34.614Z,100815.19
2018-10-16T17:24:03.529Z,100817.63
2018-10-16T17:26:32.389Z,100814.44
2018-10-16T17:29:01.339Z,100822.42
2018-10-16T17:31:30.166Z,100817.67
2018-10-16T17:33:59.036Z,100815.48
2018-10-16T17:36:28.825Z,100815.91
2018-10-16T17:38:57.628Z,100816.09
2018-10-16T17:41:26.415Z,100818.30
2018-10-16T17:43:55.240Z,100824.33
2018-10-16T17:46:24.206Z,100819.92
2018-10-16T17:48:54.099Z,100817.75
2018-10-16T17:51:22.889Z,100819.76
2018-10-16T17:53:51.782Z,100823.16
2018-10-16T17:56:20.703Z,100819.77
2018-10-16T17:58:49.481Z,100821.98
2018-10-16T18:01:18.253Z,100822.99
2018-10-16T18:03:47.004Z,100830.20
2018-10-16T18:06:15.818Z,100829.98
2018-10-16T18:08:44.588Z,100826.42
2018-10-16T18:11:13.409Z,100823.17
2018-10-16T18:13:42.170Z,100824.40
2018-10-16T18:16:10.951Z,100822.58
2018-10-16T18:18:39.706Z,100827.20
2018-10-16T18:21:08.555Z,100816.39
2018-10-16T18:23:37.384Z,100821.81
2018-10-16T18:26:06.138Z,100824.19
2018-10-16T18:28:34.893Z,100820.41
2018-10-16T18:31:03.656Z,100824.41
2018-10-16T18:33:32.893Z,100827.41
2018-10-16T18:36:01.696Z,100823.22
2018-10-16T18:38:30.694Z,100824.02
2018-10-16T18:40:59.551Z,100817.66
2018-10-16T18:43:28.916Z,100822.66
2018-10-16T18:45:57.819Z,100826.84
2018-10-16T18:48:26.614Z,100826.42
2018-10-16T18:50:55.432Z,100825.66
2018-10-16T18:53:24.301Z,100820.47
2018-10-16T18:55:53.062Z,100831.23
2018-10-16T18:58:21.884Z,100828.27
2018-10-16T19:00:50.660Z,100832.84
2018-10-16T19:03:19.445Z,100834.86
2018-10-16T19:05:48.227Z,100828.67
2018-10-16T19:08:16.989Z,100823.87
2018-10-16T19:10:45.885Z,100828.86
2018-10-16T19:13:14.668Z,100822.67
2018-10-16T19:15:43.485Z,100832.66
2018-10-16T19:18:12.273Z,100830.84
2018-10-16T19:20:41.064Z,100835.23
2018-10-16T19:23:09.838Z,100830.27
2018-10-16T19:25:38.672Z,100832.64
2018-10-16T19:28:07.673Z,100832.63
2018-10-16T19:30:36.442Z,100834.78
2018-10-16T19:33:05.440Z,100838.00
2018-10-16T19:35:34.205Z,100837.60
2018-10-16T19:38:02.971Z,100837.59
2018-10-16T19:40:31.829Z,100841.56
2018-10-16T19:43:00.637Z,100837.98
2018-10-16T19:45:29.462Z,100838.76
2018-10-16T19:47:58.193Z,100837.15
2018-10-16T19:50:26.981Z,100832.55
2018-10-16T19:52:55.746Z,100831.36
2018-10-16T19:55:25.341Z,100830.36
2018-10-16T19:57:54.221Z,100821.97
2018-10-16T20:00:23.023Z,100823.94
2018-10-16T20:02:51.803Z,100821.93
2018-10-16T20:05:20.583Z,100825.94
2018-10-16T20:07:49.362Z,100824.92
2018-10-16T20:10:18.265Z,100823.72
2018-10-16T20:12:47.051Z,100829.09
2018-10-16T20:15:15.841Z,100826.12
2018-10-16T20:17:44.637Z,100824.51
2018-10-16T20:20:13.823Z,100831.48
2018-10-16T20:22:43.638Z,100829.70
2018-10-16T20:25:12.570Z,100834.67
2018-10-16T20:27:41.370Z,100829.45
2018-10-16T20:30:11.482Z,100832.84
2018-10-16T20:32:40.575Z,100829.22
2018-10-16T20:35:09.398Z,100832.61
2018-10-16T20:37:38.230Z,100832.16
2018-10-16T20:40:07.337Z,100835.73
2018-10-16T20:42:37.186Z,100834.53
2018-10-16T20:45:06.326Z,100838.88
2018-10-16T20:47:35.257Z,100840.47
2018-10-16T20:50:04.077Z,100835.88
2018-10-16T20:52:32.863Z,100843.23
2018-10-16T20:55:01.770Z,100844.42
2018-10-16T20:57:30.590Z,100842.59
2018-10-16T20:59:59.673Z,100840.31
2018-10-16T21:02:28.537Z,100843.89
2018-10-16T21:04:57.476Z,100844.66
2018-10-16T21:07:26.207Z,100845.62
2018-10-16T21:09:55.031Z,100848.23
2018-10-16T21:12:23.856Z,100844.60
2018-10-16T21:14:52.622Z,100847.61
2018-10-16T21:17:21.393Z,100850.18
2018-10-16T21:19:50.139Z,100845.59
2018-10-16T21:22:20.929Z,100844.17
2018-10-16T21:24:49.701Z,100848.94
2018-10-16T21:27:18.513Z,100837.39
2018-10-16T21:29:47.452Z,100837.17
2018-10-16T21:32:16.214Z,100835.56
2018-10-16T21:34:45.016Z,100835.38
2018-10-16T21:37:14.006Z,100833.17
2018-10-16T21:39:42.697Z,100832.16
2018-10-16T21:42:11.448Z,100827.39
2018-10-16T21:44:40.224Z,100828.16
2018-10-16T21:47:09.004Z,100820.97
2018-10-16T21:49:37.809Z,100822.73
2018-10-16T21:52:06.562Z,100819.36
2018-10-16T21:54:35.307Z,100819.77
2018-10-16T21:57:04.184Z,100813.60
2018-10-16T21:59:32.978Z,100813.35
2018-10-16T22:02:06.937Z,100814.72
2018-10-16T22:04:35.676Z,100819.66
2018-10-16T22:07:04.585Z,100816.87
2018-10-16T22:09:33.252Z,100817.25
2018-10-16T22:12:02.050Z,100815.64
2018-10-16T22:14:30.799Z,100824.36
2018-10-16T22:16:59.588Z,100828.28
2018-10-16T22:19:28.409Z,100822.28
2018-10-16T22:21:57.167Z,100827.59
2018-10-16T22:24:25.947Z,100823.14
2018-10-16T22:26:54.692Z,100819.29
2018-10-16T22:29:23.489Z,100810.63
2018-10-16T22:31:52.224Z,100817.19
2018-10-16T22:34:21.133Z,100819.30
2018-10-16T22:36:49.930Z,100823.03
2018-10-16T22:39:18.724Z,100824.37
2018-10-16T22:41:47.500Z,100822.12
2018-10-16T22:44:16.237Z,100822.30
2018-10-16T22:46:44.990Z,100823.42
2018-10-16T22:49:13.820Z,100825.39
2018-10-16T22:51:42.512Z,100819.36
2018-10-16T22:54:11.257Z,100819.50
2018-10-16T22:56:40.206Z,100822.86
2018-10-16T22:59:09.015Z,100818.86
2018-10-16T23:01:37.706Z,100821.81
2018-10-16T23:04:06.462Z,100821.94
2018-10-16T23:06:35.227Z,100818.30
2018-10-16T23:09:05.010Z,100814.62
2018-10-16T23:11:33.817Z,100824.34
2018-10-16T23:14:02.536Z,100823.09
2018-10-16T23:16:31.310Z,100819.09
2018-10-16T23:19:00.109Z,100823.84
2018-10-16T23:21:28.820Z,100814.68
2018-10-16T23:23:57.580Z,100817.77
2018-10-16T23:26:26.325Z,100821.75
2018-10-16T23:28:55.120Z,100820.13
2018-10-16T23:31:23.924Z,100814.49
2018-10-16T23:33:52.688Z,100816.36
2018-10-16T23:36:21.434Z,100820.64
2018-10-16T23:38:50.181Z,100813.86
2018-10-16T23:41:18.956Z,100820.55
2018-10-16T23:43:47.730Z,100818.66
2018-10-16T23:46:16.472Z,100820.02
2018-10-16T23:48:45.220Z,100819.97
2018-10-16T23:51:13.964Z,100817.93
2018-10-16T23:53:42.716Z,100819.27
2018-10-16T23:56:11.466Z,100824.34
2018-10-16T23:58:40.221Z,100820.11
